createdAt,value
2019-04-27T00:01:49.761Z,6.00
2019-04-27T00:04:20.763Z,4.00
2019-04-27T00:07:03.832Z,4.28
2019-04-27T00:09:50.519Z,5.78
2019-04-27T00:12:16.471Z,6.40
2019-04-27T00:14:48.310Z,4.65
2019-04-27T00:17:45.000Z,4.83
2019-04-27T00:20:06.764Z,7.15
2019-04-27T00:22:38.834Z,3.87
2019-04-27T00:25:08.191Z,3.02
2019-04-27T00:27:37.913Z,4.40
2019-04-27T00:30:08.446Z,4.40
2019-04-27T00:32:39.755Z,3.40
2019-04-27T00:35:10.792Z,3.27
2019-04-27T00:37:42.635Z,5.15
2019-04-27T00:40:15.230Z,4.47
2019-04-27T00:42:44.824Z,2.92
2019-04-27T00:45:15.370Z,4.75
2019-04-27T00:47:56.844Z,5.60
2019-04-27T00:50:15.844Z,8.25
2019-04-27T00:52:45.273Z,4.80
2019-04-27T00:55:15.081Z,5.28
2019-04-27T00:57:53.642Z,3.45
2019-04-27T01:00:25.932Z,7.03
2019-04-27T01:02:59.867Z,6.08
2019-04-27T01:07:59.464Z,9.40
2019-04-27T01:10:30.500Z,5.75
2019-04-27T01:13:00.143Z,6.87
2019-04-27T01:15:29.511Z,5.72
2019-04-27T01:18:11.662Z,9.40
2019-04-27T01:20:49.263Z,5.45
2019-04-27T01:23:19.306Z,7.72
2019-04-27T01:25:54.320Z,5.00
2019-04-27T01:28:25.395Z,4.55
2019-04-27T01:30:56.454Z,6.50
2019-04-27T01:33:25.891Z,6.62
2019-04-27T01:35:55.252Z,5.95
2019-04-27T01:38:24.601Z,4.10
2019-04-27T01:40:53.955Z,7.85
2019-04-27T01:43:23.307Z,5.78
2019-04-27T01:45:52.671Z,6.03
2019-04-27T01:48:25.219Z,7.40
2019-04-27T01:50:53.260Z,5.17
2019-04-27T01:53:22.614Z,5.80
2019-04-27T01:55:52.104Z,5.50
2019-04-27T01:58:21.535Z,6.10
2019-04-27T02:00:52.536Z,4.90
2019-04-27T02:03:33.221Z,4.22
2019-04-27T02:06:01.299Z,6.78
2019-04-27T02:08:30.748Z,8.75
2019-04-27T02:11:00.109Z,5.47
2019-04-27T02:13:29.526Z,4.22
2019-04-27T02:15:58.939Z,6.65
2019-04-27T02:18:37.257Z,7.37
2019-04-27T02:20:59.543Z,6.78
2019-04-27T02:23:29.872Z,6.47
2019-04-27T02:25:59.233Z,5.10
2019-04-27T02:28:39.449Z,7.72
2019-04-27T02:31:19.707Z,5.30
2019-04-27T02:33:50.793Z,6.17
2019-04-27T02:36:20.329Z,3.95
2019-04-27T02:38:49.854Z,3.75
2019-04-27T02:41:19.927Z,3.08
2019-04-27T02:44:01.781Z,6.10
2019-04-27T02:46:31.680Z,8.80
2019-04-27T02:49:06.356Z,5.08
2019-04-27T02:51:52.441Z,6.00
2019-04-27T02:54:21.869Z,6.55
2019-04-27T02:56:52.677Z,5.55
2019-04-27T02:59:22.563Z,6.78
2019-04-27T03:02:00.772Z,3.85
2019-04-27T03:04:30.380Z,8.25
2019-04-27T03:07:00.388Z,6.47
2019-04-27T03:09:30.481Z,5.47
2019-04-27T03:12:01.812Z,9.25
2019-04-27T03:14:44.611Z,4.75
2019-04-27T03:17:27.628Z,3.12
2019-04-27T03:20:10.229Z,7.30
2019-04-27T03:22:43.681Z,7.58
2019-04-27T03:27:46.985Z,5.10
2019-04-27T03:30:17.028Z,8.48
2019-04-27T03:32:54.700Z,9.68
2019-04-27T03:35:21.928Z,8.40
2019-04-27T03:37:50.131Z,6.85
2019-04-27T03:40:20.501Z,7.85
2019-04-27T03:42:51.780Z,4.12
2019-04-27T03:45:21.211Z,7.37
2019-04-27T03:47:50.737Z,6.37
2019-04-27T03:50:21.842Z,7.10
2019-04-27T03:53:10.373Z,3.58
2019-04-27T03:55:59.931Z,6.25
2019-04-27T03:58:32.399Z,4.62
2019-04-27T04:01:01.837Z,6.35
2019-04-27T04:03:31.271Z,4.83
2019-04-27T04:06:00.710Z,7.10
2019-04-27T04:08:30.837Z,9.15
2019-04-27T04:11:19.831Z,6.17
2019-04-27T04:13:51.135Z,6.17
2019-04-27T04:16:39.318Z,5.80
2019-04-27T04:19:11.450Z,5.12
2019-04-27T04:21:40.891Z,4.90
2019-04-27T04:24:12.171Z,5.87
2019-04-27T04:26:41.377Z,6.90
2019-04-27T04:29:10.765Z,5.90
2019-04-27T04:31:40.708Z,6.28
2019-04-27T04:34:12.066Z,8.58
2019-04-27T04:40:05.796Z,8.68
2019-04-27T04:46:36.073Z,5.22
2019-04-27T04:49:05.580Z,5.78
2019-04-27T04:51:35.272Z,4.10
2019-04-27T04:54:04.710Z,5.35
2019-04-27T04:56:34.135Z,4.00
2019-04-27T04:59:03.628Z,4.28
2019-04-27T05:05:20.584Z,3.83
2019-04-27T05:07:49.939Z,4.85
2019-04-27T05:10:19.363Z,4.92
2019-04-27T05:12:50.415Z,5.28
2019-04-27T05:15:20.734Z,5.87
2019-04-27T05:17:51.011Z,7.40
2019-04-27T05:20:29.455Z,7.95
2019-04-27T05:22:59.486Z,4.17
2019-04-27T05:25:29.073Z,5.33
2019-04-27T05:27:59.652Z,5.80
2019-04-27T05:30:29.355Z,8.08
2019-04-27T05:32:58.731Z,8.80
2019-04-27T05:35:29.670Z,8.70
2019-04-27T05:38:00.861Z,5.85
2019-04-27T05:40:31.107Z,5.87
2019-04-27T05:43:00.708Z,11.05
2019-04-27T05:49:18.849Z,12.47
2019-04-27T05:51:50.096Z,9.25
2019-04-27T05:54:20.092Z,8.20
2019-04-27T05:56:50.615Z,8.28
2019-04-27T05:59:20.074Z,9.85
2019-04-27T06:01:50.639Z,8.60
2019-04-27T06:04:20.094Z,8.73
2019-04-27T06:06:49.996Z,9.78
2019-04-27T06:09:19.674Z,7.78
2019-04-27T06:11:50.639Z,7.97
2019-04-27T06:14:20.328Z,9.98
2019-04-27T06:16:51.405Z,11.18
2019-04-27T06:19:20.925Z,7.42
2019-04-27T06:21:50.359Z,8.58
2019-04-27T06:24:19.788Z,8.43
2019-04-27T06:26:49.788Z,11.75
2019-04-27T06:29:19.652Z,13.60
2019-04-27T06:31:49.713Z,10.70
2019-04-27T06:34:19.495Z,10.95
2019-04-27T06:36:49.138Z,10.45
2019-04-27T06:39:20.389Z,11.12
2019-04-27T06:41:49.635Z,16.65
2019-04-27T06:44:19.648Z,15.30
2019-04-27T06:46:49.198Z,11.85
2019-04-27T06:49:19.471Z,11.50
2019-04-27T06:51:49.780Z,13.50
2019-04-27T06:54:21.369Z,13.78
2019-04-27T06:56:52.194Z,13.10
2019-04-27T06:59:21.639Z,20.75
2019-04-27T07:01:50.988Z,14.98
2019-04-27T07:04:20.383Z,10.72
2019-04-27T07:06:54.010Z,19.85
2019-04-27T07:09:20.920Z,17.87
2019-04-27T07:11:50.384Z,16.00
2019-04-27T07:14:19.901Z,19.05
2019-04-27T07:16:50.770Z,23.07
2019-04-27T07:19:20.468Z,15.60
2019-04-27T07:25:02.012Z,16.85
2019-04-27T07:30:55.488Z,20.35
2019-04-27T07:33:24.849Z,18.70
2019-04-27T07:35:54.288Z,12.13
2019-04-27T07:38:23.638Z,11.22
2019-04-27T07:40:53.003Z,16.35
2019-04-27T07:43:30.066Z,14.78
2019-04-27T07:45:59.850Z,15.10
2019-04-27T07:48:29.199Z,15.90
2019-04-27T07:50:59.070Z,14.78
2019-04-27T07:53:29.154Z,14.85
2019-04-27T07:55:59.295Z,12.88
2019-04-27T07:58:29.580Z,14.75
2019-04-27T08:00:59.558Z,13.35
2019-04-27T08:03:29.190Z,13.85
2019-04-27T08:05:58.899Z,10.23
2019-04-27T08:08:28.637Z,14.53
2019-04-27T08:10:59.503Z,10.98
2019-04-27T08:13:29.448Z,14.85
2019-04-27T08:15:59.106Z,10.18
2019-04-27T08:18:29.921Z,10.35
2019-04-27T08:20:59.510Z,13.98
2019-04-27T08:23:29.487Z,13.53
2019-04-27T08:25:59.104Z,9.43
2019-04-27T08:28:36.163Z,10.78
2019-04-27T08:31:10.207Z,13.38
2019-04-27T08:33:39.567Z,10.72
2019-04-27T08:36:09.068Z,11.78
2019-04-27T08:38:38.928Z,10.63
2019-04-27T08:41:09.033Z,12.37
2019-04-27T08:43:39.128Z,10.13
2019-04-27T08:46:08.887Z,14.15
2019-04-27T08:48:39.304Z,15.68
2019-04-27T08:51:10.096Z,14.65
2019-04-27T08:53:39.873Z,10.58
2019-04-27T08:56:09.480Z,13.68
2019-04-27T08:58:38.869Z,13.53
2019-04-27T09:01:10.251Z,12.03
2019-04-27T09:03:40.436Z,6.60
2019-04-27T09:06:11.274Z,11.30
2019-04-27T09:08:43.980Z,11.20
2019-04-27T09:11:14.971Z,11.65
2019-04-27T09:13:48.806Z,13.90
2019-04-27T09:16:29.051Z,10.93
2019-04-27T09:19:00.070Z,14.30
2019-04-27T09:21:31.064Z,19.73
2019-04-27T09:24:00.517Z,16.07
2019-04-27T09:26:29.875Z,19.37
2019-04-27T09:28:59.591Z,14.98
2019-04-27T09:31:29.095Z,9.28
2019-04-27T09:33:58.457Z,11.63
2019-04-27T09:36:27.911Z,8.05
2019-04-27T09:38:57.288Z,14.10
2019-04-27T09:41:26.712Z,9.15
2019-04-27T09:43:56.365Z,11.03
2019-04-27T09:46:26.031Z,12.65
2019-04-27T09:48:56.553Z,14.65
2019-04-27T09:51:26.079Z,15.32
2019-04-27T09:53:56.308Z,11.45
2019-04-27T09:56:26.172Z,10.35
2019-04-27T09:58:57.259Z,13.48
2019-04-27T10:01:28.816Z,9.83
2019-04-27T10:03:58.411Z,15.18
2019-04-27T10:06:29.848Z,15.53
2019-04-27T10:09:00.093Z,14.83
2019-04-27T10:11:29.447Z,8.65
2019-04-27T10:13:58.814Z,11.75
2019-04-27T10:16:28.175Z,9.63
2019-04-27T10:18:57.532Z,10.32
2019-04-27T10:21:26.900Z,5.65
2019-04-27T10:23:56.767Z,8.30
2019-04-27T10:26:26.315Z,7.03
2019-04-27T10:28:56.754Z,7.15
2019-04-27T10:31:26.198Z,6.33
2019-04-27T10:33:56.015Z,6.22
2019-04-27T10:36:40.499Z,5.42
2019-04-27T10:42:35.712Z,6.42
2019-04-27T10:47:51.423Z,9.81
2019-04-27T10:50:22.225Z,10.60
2019-04-27T10:55:32.195Z,15.73
2019-04-27T10:58:01.564Z,14.18
2019-04-27T11:00:32.639Z,10.05
2019-04-27T11:03:02.004Z,11.65
2019-04-27T11:05:33.076Z,7.83
2019-04-27T11:08:02.520Z,9.20
2019-04-27T11:10:31.887Z,7.25
2019-04-27T11:13:01.323Z,12.65
2019-04-27T11:15:30.757Z,9.58
2019-04-27T11:18:00.261Z,11.45
2019-04-27T11:20:29.632Z,4.10
2019-04-27T11:26:36.376Z,7.28
2019-04-27T11:29:06.188Z,7.47
2019-04-27T11:31:36.415Z,8.00
2019-04-27T11:34:11.442Z,6.50
2019-04-27T11:36:45.626Z,9.78
2019-04-27T11:39:18.106Z,12.03
2019-04-27T11:41:47.139Z,7.85
2019-04-27T11:44:17.061Z,6.70
2019-04-27T11:46:47.559Z,8.85
2019-04-27T11:49:17.216Z,11.68
2019-04-27T15:10:13.992Z,15.45
2019-04-27T15:12:44.171Z,15.13
2019-04-27T15:15:14.188Z,21.75
2019-04-27T15:17:43.612Z,12.68
2019-04-27T15:20:22.553Z,14.53
2019-04-27T15:22:56.729Z,13.35
2019-04-27T15:25:23.209Z,13.08
2019-04-27T15:27:54.281Z,15.35
2019-04-27T15:30:27.738Z,14.20
2019-04-27T15:33:30.491Z,11.85
2019-04-27T15:36:04.315Z,14.38
2019-04-27T15:38:50.176Z,16.27
2019-04-27T15:41:31.985Z,23.92
2019-04-27T15:44:05.925Z,13.77
2019-04-27T15:46:35.005Z,17.17
2019-04-27T15:49:09.830Z,16.12
2019-04-27T15:51:38.086Z,13.38
2019-04-27T15:54:07.118Z,12.58
2019-04-27T15:56:36.997Z,14.25
2019-04-27T15:59:08.662Z,20.17
2019-04-27T16:01:39.624Z,15.98
2019-04-27T16:04:11.199Z,12.03
2019-04-27T16:06:42.835Z,11.48
2019-04-27T16:09:16.162Z,15.78
2019-04-27T16:11:50.178Z,19.30
2019-04-27T16:14:16.468Z,15.05
2019-04-27T16:16:45.927Z,22.42
2019-04-27T16:19:15.363Z,15.03
2019-04-27T16:21:47.757Z,10.40
2019-04-27T16:27:51.541Z,13.23
2019-04-27T16:33:44.477Z,13.05
2019-04-27T16:36:13.965Z,14.28
2019-04-27T16:38:51.020Z,16.30
2019-04-27T16:41:20.491Z,19.00
2019-04-27T16:43:49.924Z,13.72
2019-04-27T16:46:21.369Z,12.40
2019-04-27T16:48:50.487Z,10.43
2019-04-27T16:51:19.854Z,8.98
2019-04-27T16:53:49.359Z,11.53
2019-04-27T16:59:57.733Z,16.12
2019-04-27T17:02:25.376Z,20.48
2019-04-27T17:04:55.767Z,22.25
2019-04-27T17:07:30.185Z,19.75
2019-04-27T17:09:59.394Z,17.02
2019-04-27T17:12:29.840Z,16.02
2019-04-27T17:15:05.866Z,12.68
2019-04-27T17:17:36.186Z,14.28
2019-04-27T17:20:05.615Z,16.80
2019-04-27T17:25:48.086Z,13.98
2019-04-27T17:31:43.185Z,12.78
2019-04-27T17:34:12.556Z,21.77
2019-04-27T17:36:41.923Z,16.67
2019-04-27T17:39:12.455Z,14.78
2019-04-27T17:45:06.799Z,14.43
2019-04-27T17:47:36.141Z,8.78
2019-04-27T17:50:06.999Z,10.58
2019-04-27T17:52:37.796Z,12.28
2019-04-27T17:55:07.986Z,13.32
2019-04-27T17:57:39.158Z,18.12
2019-04-27T18:00:10.074Z,14.33
2019-04-27T18:02:42.380Z,11.25
2019-04-27T18:05:13.853Z,14.98
2019-04-27T18:07:44.276Z,13.03
2019-04-27T18:10:32.388Z,14.78
2019-04-27T18:16:30.321Z,15.05
2019-04-27T18:19:11.490Z,14.33
2019-04-27T18:21:40.751Z,12.58
2019-04-27T18:27:37.693Z,14.73
2019-04-27T18:33:18.534Z,18.98
2019-04-27T18:39:13.845Z,17.98
2019-04-27T18:41:50.699Z,10.85
2019-04-27T18:44:15.929Z,15.60
2019-04-27T18:50:07.323Z,12.95
2019-04-27T18:52:40.352Z,16.02
2019-04-27T18:55:11.408Z,20.43
2019-04-27T18:57:40.519Z,14.28
2019-04-27T19:00:12.567Z,14.75
2019-04-27T19:02:42.051Z,16.73
2019-04-27T19:05:11.431Z,18.45
2019-04-27T19:11:29.159Z,17.42
2019-04-27T19:13:59.115Z,12.03
2019-04-27T19:16:29.239Z,19.48
2019-04-27T19:18:58.872Z,11.75
2019-04-27T19:21:28.945Z,11.83
2019-04-27T19:23:58.629Z,19.45
2019-04-27T19:26:38.581Z,12.73
2019-04-27T19:29:09.663Z,16.70
2019-04-27T19:31:43.678Z,16.23
2019-04-27T19:34:13.096Z,19.73
2019-04-27T19:36:42.450Z,14.90
2019-04-27T19:39:14.018Z,16.35
2019-04-27T19:41:56.653Z,17.90
2019-04-27T19:44:18.536Z,16.40
2019-04-27T19:46:49.298Z,11.78
2019-04-27T19:49:19.218Z,20.40
2019-04-27T19:51:50.180Z,19.77
2019-04-27T19:54:19.601Z,14.07
2019-04-27T19:56:50.017Z,15.35
2019-04-27T19:59:21.308Z,22.02
2019-04-27T20:01:52.329Z,16.40
2019-04-27T20:04:30.787Z,17.23
2019-04-27T20:07:00.280Z,14.87
2019-04-27T20:09:34.195Z,19.02
2019-04-27T20:12:05.308Z,16.93
2019-04-27T20:14:53.355Z,20.02
2019-04-27T20:17:23.411Z,17.27
2019-04-27T20:19:52.808Z,20.60
2019-04-27T20:22:24.248Z,19.85
2019-04-27T20:24:53.302Z,20.40
2019-04-27T20:27:23.844Z,15.72
2019-04-27T20:29:53.533Z,15.85
2019-04-27T20:32:23.041Z,18.15
2019-04-27T20:34:52.495Z,15.78
2019-04-27T20:37:21.949Z,15.53
2019-04-27T20:39:51.618Z,15.18
2019-04-27T20:42:21.338Z,12.78
2019-04-27T20:44:51.647Z,16.70
2019-04-27T20:47:21.211Z,15.58
2019-04-27T20:49:50.566Z,17.80
2019-04-27T20:52:21.656Z,18.23
2019-04-27T20:54:51.485Z,17.30
2019-04-27T21:00:32.891Z,13.90
2019-04-27T21:03:03.954Z,14.18
2019-04-27T21:05:35.023Z,18.67
2019-04-27T21:08:15.167Z,14.45
2019-04-27T21:10:44.528Z,11.48
2019-04-27T21:13:13.977Z,19.57
2019-04-27T21:15:43.329Z,20.57
2019-04-27T21:18:12.680Z,14.73
2019-04-27T21:20:42.140Z,14.58
2019-04-27T21:23:12.067Z,12.18
2019-04-27T21:25:42.208Z,13.75
2019-04-27T21:28:16.390Z,11.78
2019-04-27T21:30:42.961Z,18.75
2019-04-27T21:33:12.391Z,21.12
2019-04-27T21:39:17.598Z,12.60
2019-04-27T21:45:11.329Z,14.70
2019-04-27T21:53:59.151Z,14.63
2019-04-27T21:56:28.543Z,13.90
2019-04-27T21:58:57.920Z,12.90
2019-04-27T22:01:29.074Z,10.50
2019-04-27T22:03:58.844Z,10.05
2019-04-27T22:06:28.791Z,13.40
2019-04-27T22:08:58.184Z,16.05
2019-04-27T22:11:27.704Z,11.30
2019-04-27T22:13:57.131Z,18.07
2019-04-27T22:16:26.576Z,13.08
2019-04-27T22:18:56.012Z,11.03
2019-04-27T22:24:48.835Z,11.53
2019-04-27T22:27:18.290Z,8.88
2019-04-27T22:30:00.875Z,10.53
2019-04-27T22:32:30.671Z,11.33
2019-04-27T22:35:02.608Z,12.10
2019-04-27T22:37:31.991Z,11.80
2019-04-27T22:40:03.077Z,15.80
2019-04-27T22:42:36.826Z,12.40
2019-04-27T22:45:08.632Z,11.30
2019-04-27T22:47:37.997Z,14.18
2019-04-27T22:50:07.815Z,11.93
2019-04-27T22:52:37.173Z,20.10
2019-04-27T22:55:07.503Z,14.60
2019-04-27T22:57:38.581Z,14.30
2019-04-27T23:00:22.561Z,13.45
2019-04-27T23:02:53.553Z,12.73
2019-04-27T23:05:23.079Z,9.90
2019-04-27T23:07:52.528Z,11.70
2019-04-27T23:10:21.904Z,13.68
2019-04-27T23:12:51.351Z,17.12
2019-04-27T23:15:22.340Z,20.57
2019-04-27T23:17:52.878Z,14.85
2019-04-27T23:20:22.372Z,14.35
2019-04-27T23:22:51.820Z,13.45
2019-04-27T23:28:45.187Z,12.68
2019-04-27T23:31:16.219Z,11.63
2019-04-27T23:33:47.229Z,8.85
2019-04-27T23:36:16.601Z,12.25
2019-04-27T23:38:45.952Z,11.90
2019-04-27T23:41:15.405Z,13.88
2019-04-27T23:43:44.813Z,8.65
2019-04-27T23:46:14.160Z,11.15
2019-04-27T23:48:43.551Z,11.08
2019-04-27T23:51:23.253Z,13.30
2019-04-27T23:53:52.689Z,10.40
2019-04-27T23:56:22.595Z,9.15
2019-04-27T23:58:52.251Z,10.80
